EZY25 EGAC-EGGW
Flight info
| Callsign | EZY25 |
|---|---|
| Flight time | 0h 57m |
| Altitude | 33000 |
| Route | DUFFY L10 RINGA Q39 ETIGA DCT INKOB Q39 NOMSU UQ4 LISTO |
| Aircraft | A320/M-SDE3FGHIRWY/LB1 |
Departure
| Time | 2026-04-25 17:20 |
|---|---|
| Airport | George Best Belfast City Airport (EGAC) |
Arrival
| Time | 2026-04-25 18:18 |
|---|---|
| Airport | London Luton Airport (EGGW) |
| Time | Latitude | Longitude | Altitude | Speed | Heading |
|---|---|---|---|---|---|
| 2026-04-25 16:38 | 54.61538 | -5.87096 | 21 ft | 0 kts | 124° |
| 2026-04-25 16:44 | 54.61538 | -5.87097 | 21 ft | 0 kts | 124° |
| 2026-04-25 17:11 | 54.61551 | -5.87130 | 23 ft | 4 kts | 116° |
| 2026-04-25 17:11 | 54.61558 | -5.87172 | 24 ft | 4 kts | 77° |
| 2026-04-25 17:11 | 54.61547 | -5.87205 | 22 ft | 2 kts | 34° |
| 2026-04-25 17:12 | 54.61543 | -5.87209 | 23 ft | 0 kts | 34° |
| 2026-04-25 17:14 | 54.61543 | -5.87210 | 23 ft | 0 kts | 34° |
| 2026-04-25 17:15 | 54.61549 | -5.87202 | 23 ft | 4 kts | 34° |
| 2026-04-25 17:15 | 54.61579 | -5.87165 | 24 ft | 5 kts | 34° |
| 2026-04-25 17:15 | 54.61605 | -5.87134 | 21 ft | 4 kts | 34° |
| 2026-04-25 17:15 | 54.61619 | -5.87118 | 21 ft | 2 kts | 34° |
| 2026-04-25 17:16 | 54.61657 | -5.87072 | 21 ft | 14 kts | 35° |
| 2026-04-25 17:16 | 54.61730 | -5.86992 | 21 ft | 9 kts | 18° |
| 2026-04-25 17:16 | 54.61767 | -5.87012 | 21 ft | 8 kts | 322° |
| 2026-04-25 17:16 | 54.61806 | -5.87104 | 20 ft | 13 kts | 303° |
| 2026-04-25 17:17 | 54.61876 | -5.87169 | 21 ft | 12 kts | 20° |
| 2026-04-25 17:17 | 54.61954 | -5.87080 | 20 ft | 15 kts | 35° |
| 2026-04-25 17:17 | 54.62047 | -5.86969 | 20 ft | 17 kts | 34° |
| 2026-04-25 17:17 | 54.62157 | -5.86838 | 20 ft | 21 kts | 34° |
| 2026-04-25 17:18 | 54.62282 | -5.86688 | 22 ft | 23 kts | 34° |
| 2026-04-25 17:18 | 54.62404 | -5.86528 | 22 ft | 11 kts | 67° |
| 2026-04-25 17:18 | 54.62452 | -5.86426 | 21 ft | 10 kts | 356° |
| 2026-04-25 17:18 | 54.62460 | -5.86475 | 21 ft | 4 kts | 221° |
| 2026-04-25 17:19 | 54.62449 | -5.86489 | 21 ft | 0 kts | 216° |
| 2026-04-25 17:19 | 54.62446 | -5.86493 | 21 ft | 7 kts | 216° |
| 2026-04-25 17:19 | 54.62199 | -5.86789 | 23 ft | 83 kts | 214° |
| 2026-04-25 17:20 | 54.61539 | -5.87572 | 36 ft | 143 kts | 208° |
| 2026-04-25 17:20 | 54.60712 | -5.88557 | 638 ft | 146 kts | 212° |
| 2026-04-25 17:20 | 54.59875 | -5.89548 | 1330 ft | 149 kts | 212° |
| 2026-04-25 17:20 | 54.58882 | -5.90327 | 1711 ft | 167 kts | 185° |
| 2026-04-25 17:21 | 54.57683 | -5.89937 | 2061 ft | 189 kts | 159° |
| 2026-04-25 17:21 | 54.56382 | -5.89075 | 2328 ft | 212 kts | 160° |
| 2026-04-25 17:21 | 54.54922 | -5.88136 | 2736 ft | 235 kts | 160° |
| 2026-04-25 17:21 | 54.53312 | -5.87117 | 3246 ft | 257 kts | 160° |
| 2026-04-25 17:22 | 54.51644 | -5.85885 | 4071 ft | 266 kts | 148° |
| 2026-04-25 17:22 | 54.50748 | -5.84441 | 4652 ft | 271 kts | 127° |
| 2026-04-25 17:22 | 54.49320 | -5.80838 | 5908 ft | 274 kts | 125° |
| 2026-04-25 17:22 | 54.48251 | -5.78103 | 6820 ft | 277 kts | 126° |
| 2026-04-25 17:23 | 54.47168 | -5.75348 | 7743 ft | 279 kts | 126° |
| 2026-04-25 17:23 | 54.46066 | -5.72577 | 8644 ft | 282 kts | 127° |
| 2026-04-25 17:23 | 54.44949 | -5.69789 | 9559 ft | 285 kts | 127° |
| 2026-04-25 17:23 | 54.43817 | -5.66976 | 10417 ft | 288 kts | 127° |
| 2026-04-25 17:24 | 54.42670 | -5.64134 | 11209 ft | 292 kts | 127° |
| 2026-04-25 17:24 | 54.41482 | -5.61192 | 11634 ft | 311 kts | 127° |
| 2026-04-25 17:24 | 54.40202 | -5.58023 | 11868 ft | 335 kts | 127° |
| 2026-04-25 17:24 | 54.38832 | -5.54630 | 12104 ft | 355 kts | 127° |
| 2026-04-25 17:25 | 54.37406 | -5.51098 | 12694 ft | 364 kts | 127° |
| 2026-04-25 17:25 | 54.35955 | -5.47508 | 13367 ft | 369 kts | 127° |
| 2026-04-25 17:25 | 54.34483 | -5.43873 | 14063 ft | 374 kts | 127° |
| 2026-04-25 17:25 | 54.32990 | -5.40194 | 14673 ft | 378 kts | 127° |
| 2026-04-25 17:26 | 54.31479 | -5.36479 | 15281 ft | 382 kts | 127° |
| 2026-04-25 17:26 | 54.29969 | -5.32779 | 15876 ft | 386 kts | 127° |
| 2026-04-25 17:26 | 54.28420 | -5.28991 | 16463 ft | 391 kts | 127° |
| 2026-04-25 17:26 | 54.26819 | -5.25208 | 17029 ft | 395 kts | 129° |
| 2026-04-25 17:27 | 54.25116 | -5.21497 | 17604 ft | 399 kts | 131° |
| 2026-04-25 17:27 | 54.23342 | -5.17825 | 18162 ft | 403 kts | 132° |
| 2026-04-25 17:27 | 54.21524 | -5.14150 | 18673 ft | 407 kts | 132° |
| 2026-04-25 17:27 | 54.20282 | -5.11655 | 18998 ft | 409 kts | 132° |
| 2026-04-25 17:28 | 54.17838 | -5.06713 | 19659 ft | 414 kts | 132° |
| 2026-04-25 17:28 | 54.15985 | -5.02928 | 20149 ft | 417 kts | 131° |
| 2026-04-25 17:28 | 54.14130 | -4.99103 | 20626 ft | 420 kts | 131° |
| 2026-04-25 17:28 | 54.12266 | -4.95245 | 21106 ft | 423 kts | 131° |
| 2026-04-25 17:29 | 54.10388 | -4.91354 | 21566 ft | 426 kts | 131° |
| 2026-04-25 17:29 | 54.08492 | -4.87441 | 22026 ft | 430 kts | 131° |
| 2026-04-25 17:29 | 54.06579 | -4.83507 | 22480 ft | 433 kts | 131° |
| 2026-04-25 17:29 | 54.04653 | -4.79551 | 22935 ft | 436 kts | 131° |
| 2026-04-25 17:30 | 54.02738 | -4.75522 | 23374 ft | 439 kts | 130° |
| 2026-04-25 17:30 | 54.00867 | -4.71391 | 23800 ft | 443 kts | 129° |
| 2026-04-25 17:30 | 53.99021 | -4.67188 | 24169 ft | 445 kts | 128° |
| 2026-04-25 17:30 | 53.97173 | -4.62942 | 24531 ft | 448 kts | 128° |
| 2026-04-25 17:31 | 53.95317 | -4.58685 | 24892 ft | 450 kts | 128° |
| 2026-04-25 17:31 | 53.93439 | -4.54420 | 25251 ft | 452 kts | 128° |
| 2026-04-25 17:31 | 53.91538 | -4.50147 | 25607 ft | 454 kts | 129° |
| 2026-04-25 17:31 | 53.89616 | -4.45876 | 25917 ft | 458 kts | 129° |
| 2026-04-25 17:32 | 53.87669 | -4.41586 | 26236 ft | 461 kts | 129° |
| 2026-04-25 17:32 | 53.85732 | -4.37243 | 26573 ft | 463 kts | 128° |
| 2026-04-25 17:32 | 53.83851 | -4.32790 | 26905 ft | 466 kts | 126° |
| 2026-04-25 17:32 | 53.82014 | -4.28259 | 27220 ft | 468 kts | 126° |
| 2026-04-25 17:33 | 53.80191 | -4.23675 | 27531 ft | 471 kts | 125° |
| 2026-04-25 17:33 | 53.78358 | -4.19064 | 27842 ft | 473 kts | 126° |
| 2026-04-25 17:33 | 53.76509 | -4.14457 | 28152 ft | 475 kts | 126° |
| 2026-04-25 17:33 | 53.74636 | -4.09851 | 28466 ft | 476 kts | 126° |
| 2026-04-25 17:34 | 53.72742 | -4.05252 | 28765 ft | 478 kts | 126° |
| 2026-04-25 17:34 | 53.70826 | -4.00649 | 29057 ft | 480 kts | 127° |
| 2026-04-25 17:34 | 53.68898 | -3.96035 | 29390 ft | 481 kts | 127° |
| 2026-04-25 17:34 | 53.66971 | -3.91421 | 29482 ft | 482 kts | 126° |
| 2026-04-25 17:35 | 53.65065 | -3.86782 | 29355 ft | 482 kts | 126° |
| 2026-04-25 17:35 | 53.63161 | -3.82119 | 29390 ft | 484 kts | 126° |
| 2026-04-25 17:35 | 53.61245 | -3.77518 | 29806 ft | 483 kts | 127° |
| 2026-04-25 17:35 | 53.59328 | -3.72975 | 30238 ft | 482 kts | 127° |
| 2026-04-25 17:36 | 53.59097 | -3.72432 | 30278 ft | 481 kts | 127° |
| 2026-04-25 17:36 | 53.58080 | -3.70038 | 30478 ft | 481 kts | 127° |
| 2026-04-25 17:36 | 53.57489 | -3.68647 | 30584 ft | 481 kts | 127° |
| 2026-04-25 17:37 | 53.56208 | -3.65634 | 30834 ft | 480 kts | 127° |
| 2026-04-25 17:37 | 53.54303 | -3.61142 | 31198 ft | 478 kts | 127° |
| 2026-04-25 17:38 | 53.52381 | -3.56597 | 31602 ft | 476 kts | 127° |
| 2026-04-25 17:38 | 53.51090 | -3.53539 | 31871 ft | 474 kts | 127° |
| 2026-04-25 17:38 | 53.48568 | -3.47572 | 32377 ft | 472 kts | 127° |
| 2026-04-25 17:38 | 53.46798 | -3.42938 | 32744 ft | 472 kts | 119° |
| 2026-04-25 17:39 | 53.45430 | -3.37936 | 33091 ft | 472 kts | 113° |
| 2026-04-25 17:39 | 53.44159 | -3.32865 | 33197 ft | 471 kts | 114° |
| 2026-04-25 17:39 | 53.41595 | -3.22755 | 33218 ft | 471 kts | 114° |
| 2026-04-25 17:40 | 53.39006 | -3.12671 | 33216 ft | 471 kts | 114° |
| 2026-04-25 17:40 | 53.36604 | -3.02474 | 33213 ft | 469 kts | 111° |
| 2026-04-25 17:41 | 53.34389 | -2.92220 | 33216 ft | 468 kts | 110° |
| 2026-04-25 17:41 | 53.32152 | -2.81988 | 33220 ft | 468 kts | 111° |
| 2026-04-25 17:42 | 53.29749 | -2.71878 | 33206 ft | 467 kts | 117° |
| 2026-04-25 17:42 | 53.26861 | -2.62148 | 33206 ft | 467 kts | 117° |
| 2026-04-25 17:43 | 53.24008 | -2.52476 | 33212 ft | 467 kts | 117° |
| 2026-04-25 17:43 | 53.21149 | -2.42769 | 33217 ft | 466 kts | 117° |
| 2026-04-25 17:44 | 53.18268 | -2.33083 | 33212 ft | 466 kts | 117° |
| 2026-04-25 17:44 | 53.15216 | -2.23565 | 33208 ft | 465 kts | 125° |
| 2026-04-25 17:45 | 53.12458 | -2.18045 | 33208 ft | 463 kts | 137° |
| 2026-04-25 17:45 | 53.05687 | -2.09370 | 33192 ft | 462 kts | 145° |
| 2026-04-25 17:46 | 53.00498 | -2.03076 | 33183 ft | 462 kts | 145° |
| 2026-04-25 17:46 | 52.95309 | -1.96777 | 33181 ft | 462 kts | 145° |
| 2026-04-25 17:47 | 52.90119 | -1.90495 | 33181 ft | 462 kts | 145° |
| 2026-04-25 17:47 | 52.84912 | -1.84233 | 33186 ft | 463 kts | 145° |
| 2026-04-25 17:48 | 52.77096 | -1.74870 | 33192 ft | 463 kts | 145° |
| 2026-04-25 17:49 | 52.71626 | -1.69333 | 33166 ft | 462 kts | 154° |
| 2026-04-25 17:49 | 52.65923 | -1.64442 | 33170 ft | 458 kts | 154° |
| 2026-04-25 17:49 | 52.63146 | -1.62049 | 33107 ft | 443 kts | 154° |
| 2026-04-25 17:50 | 52.60455 | -1.59726 | 32869 ft | 432 kts | 154° |
| 2026-04-25 17:50 | 52.57814 | -1.57451 | 32436 ft | 425 kts | 154° |
| 2026-04-25 17:50 | 52.55207 | -1.55212 | 31218 ft | 426 kts | 154° |
| 2026-04-25 17:50 | 52.52506 | -1.52908 | 29641 ft | 454 kts | 154° |
| 2026-04-25 17:51 | 52.51845 | -1.52347 | 29371 ft | 459 kts | 154° |
| 2026-04-25 17:52 | 52.50052 | -1.50831 | 28643 ft | 466 kts | 155° |
| 2026-04-25 17:52 | 52.49117 | -1.50043 | 28512 ft | 467 kts | 155° |
| 2026-04-25 17:52 | 52.44269 | -1.45960 | 25823 ft | 473 kts | 155° |
| 2026-04-25 17:52 | 52.41404 | -1.43557 | 24697 ft | 463 kts | 155° |
| 2026-04-25 17:53 | 52.38556 | -1.41149 | 23463 ft | 457 kts | 154° |
| 2026-04-25 17:53 | 52.35758 | -1.38754 | 22094 ft | 451 kts | 154° |
| 2026-04-25 17:53 | 52.33001 | -1.36381 | 21020 ft | 446 kts | 154° |
| 2026-04-25 17:53 | 52.30266 | -1.34039 | 20540 ft | 443 kts | 154° |
| 2026-04-25 17:54 | 52.27534 | -1.31655 | 19837 ft | 445 kts | 152° |
| 2026-04-25 17:54 | 52.24863 | -1.29193 | 19444 ft | 438 kts | 151° |
| 2026-04-25 17:54 | 52.22240 | -1.26695 | 18995 ft | 434 kts | 150° |
| 2026-04-25 17:54 | 52.19652 | -1.24196 | 18548 ft | 431 kts | 150° |
| 2026-04-25 17:55 | 52.17089 | -1.21722 | 18074 ft | 427 kts | 150° |
| 2026-04-25 17:55 | 52.14534 | -1.19279 | 17637 ft | 425 kts | 150° |
| 2026-04-25 17:55 | 52.11986 | -1.16870 | 17200 ft | 422 kts | 151° |
| 2026-04-25 17:55 | 52.09452 | -1.14496 | 16766 ft | 419 kts | 151° |
| 2026-04-25 17:56 | 52.06954 | -1.12170 | 16512 ft | 406 kts | 151° |
| 2026-04-25 17:56 | 52.04606 | -1.09795 | 16375 ft | 391 kts | 143° |
| 2026-04-25 17:56 | 52.02702 | -1.06759 | 16215 ft | 378 kts | 128° |
| 2026-04-25 17:56 | 52.01357 | -1.03178 | 16090 ft | 366 kts | 114° |
| 2026-04-25 17:57 | 52.00601 | -0.99323 | 15961 ft | 353 kts | 99° |
| 2026-04-25 17:57 | 52.00414 | -0.95429 | 15841 ft | 341 kts | 86° |
| 2026-04-25 17:57 | 52.00658 | -0.91665 | 15663 ft | 332 kts | 82° |
| 2026-04-25 17:57 | 52.00752 | -0.90412 | 15534 ft | 329 kts | 82° |
| 2026-04-25 17:58 | 52.01187 | -0.84350 | 14531 ft | 323 kts | 82° |
| 2026-04-25 17:58 | 52.01439 | -0.80742 | 13930 ft | 320 kts | 82° |
| 2026-04-25 17:58 | 52.01713 | -0.77185 | 13294 ft | 315 kts | 77° |
| 2026-04-25 17:58 | 52.02379 | -0.73869 | 13089 ft | 308 kts | 63° |
| 2026-04-25 17:59 | 52.03486 | -0.70922 | 12889 ft | 305 kts | 49° |
| 2026-04-25 17:59 | 52.04926 | -0.68421 | 12675 ft | 303 kts | 43° |
| 2026-04-25 17:59 | 52.06407 | -0.65981 | 12443 ft | 302 kts | 43° |
| 2026-04-25 17:59 | 52.07877 | -0.63551 | 12243 ft | 301 kts | 44° |
| 2026-04-25 18:00 | 52.08846 | -0.61944 | 12078 ft | 300 kts | 44° |
| 2026-04-25 18:00 | 52.10792 | -0.58708 | 11793 ft | 299 kts | 44° |
| 2026-04-25 18:00 | 52.12222 | -0.56328 | 11579 ft | 298 kts | 44° |
| 2026-04-25 18:00 | 52.13684 | -0.53893 | 11361 ft | 297 kts | 44° |
| 2026-04-25 18:01 | 52.15124 | -0.51493 | 11146 ft | 296 kts | 44° |
| 2026-04-25 18:01 | 52.16537 | -0.49133 | 10935 ft | 294 kts | 44° |
| 2026-04-25 18:01 | 52.17964 | -0.46750 | 10711 ft | 292 kts | 44° |
| 2026-04-25 18:01 | 52.19360 | -0.44414 | 10582 ft | 283 kts | 44° |
| 2026-04-25 18:02 | 52.20776 | -0.42283 | 10460 ft | 272 kts | 32° |
| 2026-04-25 18:02 | 52.22434 | -0.40985 | 10333 ft | 260 kts | 14° |
| 2026-04-25 18:02 | 52.24195 | -0.40611 | 10155 ft | 252 kts | 358° |
| 2026-04-25 18:02 | 52.25946 | -0.40669 | 9981 ft | 252 kts | 358° |
| 2026-04-25 18:03 | 52.27695 | -0.40719 | 9808 ft | 251 kts | 358° |
| 2026-04-25 18:03 | 52.29432 | -0.40764 | 9637 ft | 248 kts | 358° |
| 2026-04-25 18:03 | 52.30597 | -0.40792 | 9518 ft | 247 kts | 358° |
| 2026-04-25 18:03 | 52.32864 | -0.40845 | 9292 ft | 246 kts | 359° |
| 2026-04-25 18:04 | 52.34544 | -0.40396 | 9195 ft | 247 kts | 19° |
| 2026-04-25 18:04 | 52.35581 | -0.39535 | 9129 ft | 248 kts | 33° |
| 2026-04-25 18:04 | 52.36807 | -0.37545 | 9020 ft | 251 kts | 54° |
| 2026-04-25 18:04 | 52.37514 | -0.34929 | 8906 ft | 254 kts | 76° |
| 2026-04-25 18:05 | 52.37583 | -0.32040 | 8797 ft | 257 kts | 98° |
| 2026-04-25 18:05 | 52.37002 | -0.29327 | 8687 ft | 258 kts | 121° |
| 2026-04-25 18:05 | 52.35830 | -0.27115 | 8574 ft | 259 kts | 143° |
| 2026-04-25 18:05 | 52.34249 | -0.25736 | 8463 ft | 258 kts | 159° |
| 2026-04-25 18:06 | 52.32596 | -0.24629 | 8347 ft | 259 kts | 158° |
| 2026-04-25 18:06 | 52.30931 | -0.23515 | 8225 ft | 258 kts | 159° |
| 2026-04-25 18:06 | 52.29207 | -0.22796 | 8192 ft | 256 kts | 172° |
| 2026-04-25 18:06 | 52.27446 | -0.22301 | 8193 ft | 256 kts | 171° |
| 2026-04-25 18:07 | 52.25699 | -0.21801 | 8196 ft | 255 kts | 171° |
| 2026-04-25 18:07 | 52.23954 | -0.21299 | 8195 ft | 255 kts | 171° |
| 2026-04-25 18:07 | 52.22209 | -0.20798 | 8195 ft | 255 kts | 171° |
| 2026-04-25 18:07 | 52.20465 | -0.20298 | 8195 ft | 255 kts | 171° |
| 2026-04-25 18:08 | 52.18708 | -0.20000 | 8192 ft | 254 kts | 180° |
| 2026-04-25 18:08 | 52.16942 | -0.19975 | 8193 ft | 254 kts | 180° |
| 2026-04-25 18:08 | 52.15173 | -0.19941 | 8192 ft | 254 kts | 180° |
| 2026-04-25 18:08 | 52.13405 | -0.19904 | 8112 ft | 255 kts | 180° |
| 2026-04-25 18:09 | 52.11633 | -0.20037 | 7717 ft | 255 kts | 193° |
| 2026-04-25 18:09 | 52.10001 | -0.21058 | 7294 ft | 250 kts | 214° |
| 2026-04-25 18:09 | 52.08710 | -0.22905 | 6749 ft | 246 kts | 233° |
| 2026-04-25 18:09 | 52.08018 | -0.24364 | 6357 ft | 246 kts | 234° |
| 2026-04-25 18:10 | 52.06598 | -0.27262 | 5604 ft | 244 kts | 225° |
| 2026-04-25 18:10 | 52.05204 | -0.28767 | 5233 ft | 237 kts | 200° |
| 2026-04-25 18:10 | 52.03594 | -0.29246 | 5191 ft | 239 kts | 178° |
| 2026-04-25 18:10 | 52.01981 | -0.28673 | 5213 ft | 239 kts | 153° |
| 2026-04-25 18:11 | 52.00681 | -0.27031 | 5216 ft | 239 kts | 126° |
| 2026-04-25 18:11 | 51.99968 | -0.24640 | 5216 ft | 236 kts | 100° |
| 2026-04-25 18:11 | 51.99938 | -0.21997 | 5214 ft | 235 kts | 84° |
| 2026-04-25 18:11 | 52.00072 | -0.19345 | 5211 ft | 235 kts | 84° |
| 2026-04-25 18:12 | 52.00201 | -0.16763 | 5208 ft | 226 kts | 84° |
| 2026-04-25 18:12 | 52.00309 | -0.14228 | 5208 ft | 225 kts | 90° |
| 2026-04-25 18:12 | 51.99840 | -0.11847 | 5207 ft | 226 kts | 128° |
| 2026-04-25 18:12 | 51.98569 | -0.10370 | 4946 ft | 229 kts | 162° |
| 2026-04-25 18:13 | 51.97038 | -0.09697 | 4666 ft | 227 kts | 165° |
| 2026-04-25 18:13 | 51.95485 | -0.09024 | 4190 ft | 234 kts | 165° |
| 2026-04-25 18:13 | 51.93916 | -0.08500 | 4006 ft | 227 kts | 181° |
| 2026-04-25 18:14 | 51.91827 | -0.11344 | 3934 ft | 196 kts | 254° |
| 2026-04-25 18:14 | 51.91465 | -0.13456 | 3481 ft | 196 kts | 256° |
| 2026-04-25 18:14 | 51.91108 | -0.15581 | 3085 ft | 193 kts | 255° |
| 2026-04-25 18:14 | 51.90759 | -0.17636 | 2798 ft | 185 kts | 255° |
| 2026-04-25 18:15 | 51.90422 | -0.19613 | 2550 ft | 179 kts | 255° |
| 2026-04-25 18:15 | 51.90093 | -0.21534 | 2306 ft | 174 kts | 255° |
| 2026-04-25 18:15 | 51.89778 | -0.23378 | 2080 ft | 170 kts | 255° |
| 2026-04-25 18:15 | 51.89466 | -0.25196 | 1858 ft | 165 kts | 255° |
| 2026-04-25 18:16 | 51.89170 | -0.26920 | 1642 ft | 155 kts | 255° |
| 2026-04-25 18:16 | 51.88890 | -0.28553 | 1429 ft | 146 kts | 255° |
| 2026-04-25 18:16 | 51.88352 | -0.31668 | 1044 ft | 142 kts | 255° |
| 2026-04-25 18:17 | 51.88080 | -0.33211 | 835 ft | 143 kts | 255° |
| 2026-04-25 18:17 | 51.87813 | -0.34756 | 645 ft | 142 kts | 256° |
| 2026-04-25 18:17 | 51.87562 | -0.36286 | 537 ft | 132 kts | 255° |
| 2026-04-25 18:17 | 51.87355 | -0.37470 | 538 ft | 85 kts | 255° |
| 2026-04-25 18:18 | 51.87254 | -0.38053 | 533 ft | 15 kts | 261° |
| 2026-04-25 18:18 | 51.87278 | -0.38104 | 533 ft | 3 kts | 331° |
| 2026-04-25 18:18 | 51.87297 | -0.38111 | 533 ft | 2 kts | 354° |
| 2026-04-25 18:18 | 51.87305 | -0.38110 | 533 ft | 2 kts | 4° |
| 2026-04-25 18:19 | 51.87342 | -0.38089 | 534 ft | 8 kts | 24° |
| 2026-04-25 18:19 | 51.87400 | -0.38040 | 536 ft | 11 kts | 34° |
| 2026-04-25 18:19 | 51.87433 | -0.37961 | 536 ft | 12 kts | 69° |
| 2026-04-25 18:19 | 51.87458 | -0.37813 | 536 ft | 15 kts | 74° |
| 2026-04-25 18:20 | 51.87496 | -0.37598 | 536 ft | 22 kts | 75° |
| 2026-04-25 18:20 | 51.87573 | -0.37450 | 536 ft | 17 kts | 13° |
| 2026-04-25 18:20 | 51.87689 | -0.37518 | 534 ft | 20 kts | 308° |
| 2026-04-25 18:20 | 51.87744 | -0.37714 | 534 ft | 19 kts | 295° |
| 2026-04-25 18:21 | 51.87758 | -0.37765 | 534 ft | 0 kts | 294° |
| 2026-04-25 18:21 | 51.87758 | -0.37766 | 534 ft | 1 kts | 294° |
| 2026-04-25 18:21 | 51.87779 | -0.37837 | 534 ft | 13 kts | 295° |
| 2026-04-25 18:22 | 51.87829 | -0.37968 | 534 ft | 13 kts | 315° |
| 2026-04-25 18:22 | 51.87853 | -0.37996 | 534 ft | 13 kts | 332° |
| 2026-04-25 18:22 | 51.87931 | -0.37996 | 534 ft | 4 kts | 80° |
| 2026-04-25 18:22 | 51.87929 | -0.37959 | 534 ft | 3 kts | 97° |
| 2026-04-25 18:23 | 51.87926 | -0.37932 | 534 ft | 2 kts | 99° |
| 2026-04-25 18:23 | 51.87925 | -0.37918 | 534 ft | 1 kts | 99° |